Grandview, Iowa
Current Conditions -  °F | °C
As of 11:35 PM on Wednesday 26 Nov 2014 (Local Time) from KMUT Reporting Station
Unknown Precip Unknown Precip  
Wind Chill: 17°   Ceiling: 3100
Heat Index: 27°   Visibility: 4mi
Dew Point: 23°   Wind: 9mph
Humidity: 86%   Direction: 320°NW
Pressure: 30.3"   Gusts: NA
Location:  41.28°N, 91.19°W
Report Text: KMUT 270535Z AUTO 32008KT 4SM -UP SCT025 BKN031 OVC055 M03/M05 A3030 RMK AO2
Loading
Personal Weather Stations






























Interactive Weather Map New forecast layout! Learn more

10-Day Weather Forecast

Advertisements
Track Severe Weather on mobile